Time;durP1;ratioP1;P1;durP2;ratioP2;P2;SDS_P1;SDS_P2;PMS_P1;PMS_P2;Temp;Humidity;BMP_temperature;BMP_pressure;BME280_temperature;BME280_humidity;BME280_pressure;Samples;Min_cycle;Max_cycle;Signal;HPM_P1;HPM_P2
2022/01/06 00:02:24;;;;;;;2.30;1.90;;;5.10;99.90;;;;;;4913608;29;20187;-52
2022/01/06 00:04:50;;;;;;;3.25;2.30;;;5.00;99.90;;;;;;4905863;29;20541;-53
2022/01/06 00:07:16;;;;;;;5.13;2.40;;;5.00;99.90;;;;;;4912202;29;20278;-53
2022/01/06 00:09:41;;;;;;;6.80;2.60;;;5.00;99.90;;;;;;4912490;29;20216;-54
2022/01/06 00:12:10;;;;;;;2.63;2.43;;;5.10;99.90;;;;;;4913343;29;20226;-54
2022/01/06 00:14:55;;;;;;;2.30;2.00;;;5.00;99.90;;;;;;4912544;29;20186;-51
2022/01/06 00:25:21;;;;;;;5.22;2.83;;;4.60;99.90;;;;;;4912467;29;20242;-51
2022/01/06 00:27:46;;;;;;;4.37;3.27;;;4.60;99.90;;;;;;4911815;29;20239;-54
2022/01/06 00:30:12;;;;;;;4.27;2.80;;;4.40;99.90;;;;;;4892249;29;20202;-55
2022/01/06 00:32:37;;;;;;;3.60;2.90;;;4.40;99.90;;;;;;4911019;29;20187;-52
2022/01/06 00:35:03;;;;;;;3.43;3.03;;;4.40;99.90;;;;;;4912032;29;20195;-53
2022/01/06 00:37:29;;;;;;;3.20;2.90;;;4.30;99.90;;;;;;4912288;29;20709;-48
2022/01/06 00:39:54;;;;;;;4.33;2.87;;;4.30;99.90;;;;;;4912413;29;20195;-50
2022/01/06 00:42:20;;;;;;;5.53;3.10;;;4.20;99.90;;;;;;4912868;29;20190;-53
2022/01/06 00:44:46;;;;;;;3.57;2.43;;;4.00;99.90;;;;;;4913054;29;20295;-53
2022/01/06 00:47:11;;;;;;;4.03;3.07;;;3.90;99.90;;;;;;4912386;29;20215;-54
2022/01/06 00:49:37;;;;;;;4.83;2.90;;;3.70;99.90;;;;;;4910342;29;20191;-52
2022/01/06 00:52:03;;;;;;;3.17;2.70;;;3.60;99.90;;;;;;4909713;29;20194;-50
2022/01/06 00:54:30;;;;;;;4.07;2.80;;;3.60;99.90;;;;;;4912269;29;20198;-51
2022/01/06 00:56:56;;;;;;;4.53;2.90;;;3.50;99.90;;;;;;4913088;29;20194;-49
2022/01/06 00:59:21;;;;;;;3.87;2.57;;;3.40;99.90;;;;;;4911823;29;20241;-50
2022/01/06 01:01:47;;;;;;;5.47;3.20;;;3.50;99.90;;;;;;4912747;29;20195;-52
2022/01/06 01:04:12;;;;;;;4.27;3.00;;;3.50;99.90;;;;;;4912782;29;20751;-53
2022/01/06 01:06:38;;;;;;;3.57;3.07;;;3.50;99.90;;;;;;4906866;29;20242;-52
2022/01/06 01:09:04;;;;;;;4.63;2.80;;;3.50;99.90;;;;;;4888526;29;20195;-53
2022/01/06 01:11:30;;;;;;;3.63;3.10;;;3.50;99.90;;;;;;4907214;29;20418;-52
2022/01/06 01:13:56;;;;;;;5.37;2.87;;;3.60;99.90;;;;;;4917043;29;21131;-48
2022/01/06 01:16:30;;;;;;;3.15;2.38;;;3.60;99.90;;;;;;4916705;29;20183;-53
2022/01/06 01:18:57;;;;;;;3.70;2.40;;;3.60;99.90;;;;;;4916431;29;20354;-54
2022/01/06 01:21:27;;;;;;;3.42;2.78;;;3.60;99.90;;;;;;4915309;29;20639;-52
2022/01/06 01:23:58;;;;;;;3.10;2.25;;;3.60;99.90;;;;;;4916735;29;20198;-50
2022/01/06 01:26:25;;;;;;;3.60;2.70;;;3.60;99.90;;;;;;4915495;29;20207;-51
2022/01/06 01:28:52;;;;;;;4.43;2.47;;;3.70;99.90;;;;;;4913940;29;20245;-53
2022/01/06 01:31:25;;;;;;;3.95;2.20;;;3.70;99.90;;;;;;4915688;29;20622;-53
2022/01/06 01:33:52;;;;;;;2.45;1.90;;;3.80;99.90;;;;;;4914475;29;20187;-52
2022/01/06 01:36:19;;;;;;;2.70;2.35;;;3.80;99.90;;;;;;4896875;29;20286;-50
2022/01/06 01:38:45;;;;;;;2.03;1.83;;;3.90;99.90;;;;;;4915461;29;20641;-52
2022/01/06 01:41:11;;;;;;;2.65;1.60;;;3.80;99.90;;;;;;4913269;29;20541;-51
2022/01/06 01:43:37;;;;;;;1.93;1.73;;;3.80;99.90;;;;;;4914076;29;20198;-52
2022/01/06 01:46:12;;;;;;;2.65;1.60;;;3.70;99.90;;;;;;4914888;29;20475;-50
2022/01/06 01:48:42;;;;;;;2.42;1.83;;;3.80;99.90;;;;;;4913858;29;20193;-53
2022/01/06 01:51:08;;;;;;;2.42;1.70;;;3.70;99.90;;;;;;4914979;29;20178;-55
2022/01/06 01:53:35;;;;;;;1.70;1.60;;;3.70;99.90;;;;;;4913632;29;20322;-50
2022/01/06 01:56:03;;;;;;;3.67;2.20;;;3.70;99.90;;;;;;4906091;29;20199;-52
2022/01/06 01:58:29;;;;;;;6.65;2.20;;;3.70;99.90;;;;;;4914813;29;20223;-53
2022/01/06 02:00:54;;;;;;;2.33;1.80;;;3.70;99.90;;;;;;4913691;29;20230;-55
2022/01/06 02:03:20;;;;;;;2.57;2.30;;;3.80;99.90;;;;;;4914070;29;20513;-53
2022/01/06 02:05:46;;;;;;;3.10;2.40;;;3.80;99.90;;;;;;4915650;29;20206;-53
2022/01/06 02:08:11;;;;;;;2.57;2.37;;;3.80;99.90;;;;;;4898139;29;20195;-54
2022/01/06 02:10:37;;;;;;;5.13;3.10;;;3.90;99.90;;;;;;4913806;29;20271;-54
2022/01/06 02:13:03;;;;;;;9.07;3.50;;;3.90;99.90;;;;;;4912264;29;20219;-51
2022/01/06 02:15:29;;;;;;;3.92;2.90;;;3.90;99.90;;;;;;4914211;29;20210;-51
2022/01/06 02:17:55;;;;;;;3.73;2.80;;;3.90;99.90;;;;;;4912703;29;20677;-50
2022/01/06 02:20:22;;;;;;;4.80;3.03;;;3.90;99.90;;;;;;4914079;29;20695;-51
2022/01/06 02:22:49;;;;;;;2.95;2.47;;;3.90;99.90;;;;;;4913572;29;20577;-57
2022/01/06 02:25:32;;;;;;;4.55;2.55;;;3.90;99.90;;;;;;4915443;29;20607;-53
2022/01/06 02:28:03;;;;;;;3.67;2.45;;;4.00;99.90;;;;;;4915633;29;20240;-53
2022/01/06 02:30:32;;;;;;;5.65;2.90;;;4.00;99.90;;;;;;4912299;29;21838;-51
2022/01/06 02:33:00;;;;;;;5.68;3.17;;;4.00;99.90;;;;;;4912043;29;20187;-52
2022/01/06 02:35:26;;;;;;;5.93;3.40;;;3.90;99.90;;;;;;4901341;29;20194;-51
2022/01/06 02:37:52;;;;;;;4.40;2.70;;;3.90;99.90;;;;;;4914012;29;20634;-52
2022/01/06 02:40:20;;;;;;;4.93;2.80;;;3.90;99.90;;;;;;4914405;29;20463;-52
2022/01/06 02:42:50;;;;;;;3.88;2.92;;;4.00;99.90;;;;;;4911989;29;20202;-53
2022/01/06 02:45:18;;;;;;;2.90;2.42;;;4.00;99.90;;;;;;4903168;29;20537;-50
2022/01/06 02:47:45;;;;;;;4.35;2.90;;;4.00;99.90;;;;;;4894975;29;20191;-53
2022/01/06 02:50:12;;;;;;;5.80;2.55;;;3.90;99.90;;;;;;4913908;29;20187;-50
2022/01/06 02:52:37;;;;;;;4.30;2.70;;;4.00;99.90;;;;;;4914178;29;20184;-55
2022/01/06 02:55:06;;;;;;;6.83;2.70;;;4.00;99.90;;;;;;4912989;29;20202;-54
2022/01/06 02:57:31;;;;;;;5.63;2.40;;;4.00;99.90;;;;;;4913720;29;20302;-55
2022/01/06 02:59:57;;;;;;;4.27;2.40;;;4.00;99.90;;;;;;4911976;29;20191;-55
2022/01/06 03:02:22;;;;;;;6.93;2.70;;;4.00;99.90;;;;;;4913207;29;20203;-52
2022/01/06 03:04:48;;;;;;;3.10;2.40;;;3.90;99.90;;;;;;4909941;29;20608;-54
2022/01/06 03:07:14;;;;;;;3.07;2.13;;;3.80;99.90;;;;;;4913455;29;20215;-51
2022/01/06 03:09:41;;;;;;;6.40;2.20;;;3.80;99.90;;;;;;4914362;29;20637;-52
2022/01/06 03:12:33;;;;;;;4.57;2.25;;;3.60;99.90;;;;;;4914372;29;20221;-50
2022/01/06 03:15:00;;;;;;;3.92;2.00;;;3.50;99.90;;;;;;4909253;29;20191;-49
2022/01/06 03:17:25;;;;;;;5.35;2.13;;;3.50;99.90;;;;;;4913730;29;20626;-51
2022/01/06 03:19:51;;;;;;;4.17;2.40;;;3.50;99.90;;;;;;4913540;29;20202;-53
2022/01/06 03:22:16;;;;;;;5.30;2.70;;;3.50;99.90;;;;;;4913661;29;20202;-52
2022/01/06 03:24:42;;;;;;;4.30;3.00;;;3.60;99.90;;;;;;4912781;29;20563;-54
2022/01/06 03:27:08;;;;;;;11.35;3.30;;;3.60;99.90;;;;;;4910767;29;20273;-55
2022/01/06 03:29:34;;;;;;;6.43;3.00;;;3.50;99.90;;;;;;4906689;29;20270;-51
2022/01/06 03:32:00;;;;;;;4.60;2.70;;;3.50;99.90;;;;;;4914161;29;20187;-53
2022/01/06 03:34:30;;;;;;;3.97;3.03;;;3.60;99.90;;;;;;4913255;29;20534;-55
2022/01/06 03:36:56;;;;;;;3.45;2.75;;;3.50;99.90;;;;;;4913896;29;20431;-54
2022/01/06 03:39:22;;;;;;;3.90;2.90;;;3.50;99.90;;;;;;4914072;29;20273;-53
2022/01/06 03:41:47;;;;;;;6.53;2.87;;;3.50;99.90;;;;;;4913155;29;20278;-51
2022/01/06 03:44:13;;;;;;;5.90;2.90;;;3.50;99.90;;;;;;4913855;29;20206;-53
2022/01/06 03:46:38;;;;;;;4.00;2.77;;;3.30;99.90;;;;;;4896867;29;20218;-52
2022/01/06 03:49:04;;;;;;;4.73;3.17;;;3.20;99.90;;;;;;4912790;29;20577;-51
2022/01/06 03:51:30;;;;;;;4.60;2.80;;;3.10;99.90;;;;;;4913278;29;20194;-50
2022/01/06 03:53:55;;;;;;;3.65;2.58;;;3.10;99.90;;;;;;4912493;29;20183;-53
2022/01/06 03:56:21;;;;;;;5.63;3.00;;;3.10;99.90;;;;;;4913527;29;20198;-53
2022/01/06 03:58:48;;;;;;;5.43;3.03;;;3.10;99.90;;;;;;4911996;29;20195;-50
2022/01/06 04:01:14;;;;;;;5.80;2.70;;;3.10;99.90;;;;;;4913571;29;20190;-52
2022/01/06 04:03:40;;;;;;;5.53;3.03;;;3.10;99.90;;;;;;4913149;29;20206;-50
2022/01/06 04:06:06;;;;;;;3.90;2.90;;;3.10;99.90;;;;;;4913649;29;20221;-53
2022/01/06 04:08:31;;;;;;;3.60;2.20;;;3.10;99.90;;;;;;4913379;29;20518;-56
2022/01/06 04:10:57;;;;;;;5.40;2.50;;;3.10;99.90;;;;;;4911566;29;20442;-55
2022/01/06 04:13:24;;;;;;;5.40;2.90;;;3.10;99.90;;;;;;4912570;29;20541;-55
2022/01/06 04:15:49;;;;;;;6.68;2.80;;;3.10;99.90;;;;;;4911435;29;20183;-56
2022/01/06 04:18:15;;;;;;;4.60;2.70;;;3.10;99.90;;;;;;4911373;29;20197;-52
2022/01/06 04:20:40;;;;;;;2.70;2.40;;;3.20;99.90;;;;;;4912060;29;20701;-55
2022/01/06 04:23:07;;;;;;;3.93;2.50;;;3.20;99.90;;;;;;4912500;29;20226;-52
2022/01/06 04:25:32;;;;;;;2.58;2.15;;;3.10;99.90;;;;;;4911522;29;20231;-53
2022/01/06 04:27:58;;;;;;;4.43;2.50;;;3.00;99.90;;;;;;4911328;29;20916;-56
2022/01/06 04:30:24;;;;;;;4.87;2.90;;;2.70;99.90;;;;;;4912654;29;20204;-51
2022/01/06 04:32:49;;;;;;;2.70;1.87;;;2.60;99.90;;;;;;4913099;29;20183;-54
2022/01/06 04:35:15;;;;;;;2.50;2.03;;;2.50;99.90;;;;;;4911420;29;20245;-58
2022/01/06 04:37:40;;;;;;;8.33;2.90;;;2.50;99.90;;;;;;4913029;29;20210;-50
2022/01/06 04:40:07;;;;;;;3.20;2.40;;;2.50;99.90;;;;;;4912001;29;20202;-54
2022/01/06 04:42:34;;;;;;;3.42;2.35;;;2.50;99.90;;;;;;4913055;29;20269;-51
2022/01/06 04:44:59;;;;;;;7.22;2.10;;;2.50;99.90;;;;;;4912556;29;20195;-53
2022/01/06 04:47:25;;;;;;;3.63;2.60;;;2.50;99.90;;;;;;4895943;29;20218;-51
2022/01/06 04:49:51;;;;;;;2.83;2.10;;;2.60;99.90;;;;;;4913171;29;20194;-51
2022/01/06 04:52:16;;;;;;;3.53;2.23;;;2.50;99.90;;;;;;4913016;29;20266;-52
2022/01/06 04:54:42;;;;;;;4.13;2.70;;;2.60;99.90;;;;;;4911862;29;20431;-52
2022/01/06 04:57:08;;;;;;;3.53;2.40;;;2.60;99.90;;;;;;4912908;29;20230;-51
2022/01/06 04:59:34;;;;;;;5.70;2.95;;;2.70;99.90;;;;;;4912879;29;20187;-51
2022/01/06 05:01:59;;;;;;;7.77;2.70;;;2.60;99.90;;;;;;4912786;29;20198;-50
2022/01/06 05:04:25;;;;;;;3.67;2.60;;;2.70;99.90;;;;;;4910973;29;20198;-52
2022/01/06 05:06:51;;;;;;;6.33;2.70;;;2.70;99.90;;;;;;4910884;29;20207;-52
2022/01/06 05:09:17;;;;;;;3.77;2.53;;;2.70;99.90;;;;;;4911583;29;20223;-54
2022/01/06 05:11:42;;;;;;;3.28;2.60;;;2.70;99.90;;;;;;4912940;29;20183;-54
2022/01/06 05:14:08;;;;;;;3.57;2.67;;;2.70;99.90;;;;;;4912762;29;20176;-50
2022/01/06 05:16:34;;;;;;;5.30;3.10;;;2.70;99.90;;;;;;4912672;29;20198;-53
2022/01/06 05:18:59;;;;;;;5.90;4.03;;;2.70;99.90;;;;;;4913053;29;20431;-53
2022/01/06 05:21:29;;;;;;;4.60;3.30;;;2.70;99.90;;;;;;4911863;29;20198;-51
2022/01/06 05:23:54;;;;;;;4.85;2.80;;;2.70;99.90;;;;;;4906541;29;20195;-57
2022/01/06 05:26:20;;;;;;;3.67;2.77;;;2.70;99.90;;;;;;4901246;29;20225;-53
2022/01/06 05:28:46;;;;;;;4.50;3.03;;;2.80;99.90;;;;;;4902785;29;20281;-51
2022/01/06 05:31:11;;;;;;;7.40;3.10;;;2.80;99.90;;;;;;4902753;29;20242;-53
2022/01/06 05:33:37;;;;;;;8.63;3.00;;;2.80;99.90;;;;;;4902624;29;20191;-50
2022/01/06 05:36:03;;;;;;;4.07;2.67;;;2.70;99.90;;;;;;4902671;29;20227;-54
2022/01/06 05:38:28;;;;;;;3.83;2.70;;;2.70;99.90;;;;;;4904129;29;20230;-52
2022/01/06 05:40:54;;;;;;;6.43;2.90;;;2.70;99.90;;;;;;4902643;29;20761;-54
2022/01/06 05:43:21;;;;;;;4.90;3.17;;;2.70;99.90;;;;;;4910400;29;20247;-50
2022/01/06 05:45:48;;;;;;;4.93;3.40;;;2.60;99.90;;;;;;4908051;29;20218;-56
2022/01/06 05:48:14;;;;;;;4.10;2.65;;;2.60;99.90;;;;;;4910758;29;20235;-53
2022/01/06 05:50:40;;;;;;;5.80;2.40;;;2.50;99.90;;;;;;4911024;29;20589;-55
2022/01/06 05:53:05;;;;;;;3.30;2.30;;;2.50;99.90;;;;;;4907677;29;20955;-54
2022/01/06 05:55:31;;;;;;;9.90;2.57;;;2.40;99.90;;;;;;4911186;29;20199;-55
2022/01/06 05:57:56;;;;;;;5.90;2.57;;;2.30;99.90;;;;;;4913872;29;20230;-56
2022/01/06 06:00:22;;;;;;;4.43;2.70;;;2.20;99.90;;;;;;4912446;29;21585;-52
2022/01/06 06:02:48;;;;;;;2.90;2.27;;;2.10;99.90;;;;;;4914379;29;20591;-52
2022/01/06 06:05:13;;;;;;;2.40;1.73;;;2.00;99.90;;;;;;4915937;29;20259;-54
2022/01/06 06:07:39;;;;;;;3.57;2.33;;;1.90;99.90;;;;;;4915876;29;20576;-53
2022/01/06 06:10:05;;;;;;;3.47;2.23;;;1.90;99.90;;;;;;4915284;29;20251;-52
2022/01/06 06:12:30;;;;;;;3.70;2.40;;;1.80;99.90;;;;;;4915393;29;20559;-52
2022/01/06 06:14:56;;;;;;;4.50;2.70;;;1.70;99.90;;;;;;4906020;29;20533;-54
2022/01/06 06:17:21;;;;;;;4.43;2.53;;;1.70;99.90;;;;;;4910959;29;20210;-58
2022/01/06 06:19:47;;;;;;;5.33;2.33;;;1.60;99.90;;;;;;4910185;29;20568;-54
2022/01/06 06:22:12;;;;;;;3.30;2.27;;;1.60;99.90;;;;;;4907495;29;21068;-55
2022/01/06 06:24:38;;;;;;;3.50;2.30;;;1.60;99.90;;;;;;4911041;29;20195;-52
2022/01/06 06:27:05;;;;;;;2.93;2.20;;;1.60;99.90;;;;;;4913524;29;20242;-54
2022/01/06 06:29:30;;;;;;;2.97;2.40;;;1.60;99.90;;;;;;4912133;29;20195;-53
2022/01/06 06:31:56;;;;;;;3.27;2.63;;;1.50;99.90;;;;;;4913872;29;20193;-57
2022/01/06 06:34:21;;;;;;;5.47;3.30;;;1.50;99.90;;;;;;4915257;29;20225;-52
2022/01/06 06:36:47;;;;;;;8.37;3.57;;;1.60;99.90;;;;;;4914950;29;20195;-54
2022/01/06 06:39:13;;;;;;;5.37;2.83;;;1.50;99.90;;;;;;4906268;29;20642;-52
2022/01/06 06:41:39;;;;;;;5.77;2.40;;;1.60;99.90;;;;;;4911626;29;20434;-56
2022/01/06 06:44:05;;;;;;;3.27;2.40;;;1.50;99.90;;;;;;4914924;29;20194;-54
2022/01/06 06:46:31;;;;;;;5.00;2.67;;;1.50;99.90;;;;;;4912668;29;20466;-53
2022/01/06 06:48:56;;;;;;;4.47;2.30;;;1.50;99.90;;;;;;4910122;29;20206;-50
2022/01/06 06:51:22;;;;;;;4.03;2.20;;;1.50;99.90;;;;;;4913782;29;20215;-50
2022/01/06 06:53:47;;;;;;;2.63;1.90;;;1.40;99.90;;;;;;4909589;29;20187;-51
2022/01/06 06:56:13;;;;;;;3.80;1.63;;;1.40;99.90;;;;;;4909604;29;20968;-53
2022/01/06 06:58:39;;;;;;;4.23;1.90;;;1.30;99.90;;;;;;4911464;29;20550;-54
2022/01/06 07:01:04;;;;;;;3.40;2.50;;;1.30;99.90;;;;;;4913929;29;20205;-49
2022/01/06 07:03:30;;;;;;;6.33;1.67;;;1.30;99.90;;;;;;4914289;29;20282;-51
2022/01/06 07:05:55;;;;;;;2.27;1.90;;;1.20;99.90;;;;;;4913717;29;20305;-55
2022/01/06 07:08:21;;;;;;;3.00;2.17;;;1.20;99.90;;;;;;4913394;29;20201;-55
2022/01/06 07:10:46;;;;;;;4.90;2.00;;;1.10;99.90;;;;;;4894551;29;20286;-55
2022/01/06 07:13:16;;;;;;;2.47;2.27;;;1.20;99.90;;;;;;4895656;29;20402;-54
2022/01/06 07:15:43;;;;;;;2.00;1.80;;;1.10;99.90;;;;;;4913484;29;20439;-54
2022/01/06 07:18:09;;;;;;;3.90;2.10;;;1.00;99.90;;;;;;4913272;29;20198;-55
2022/01/06 07:20:34;;;;;;;5.10;1.70;;;0.90;99.90;;;;;;4911321;29;20199;-53
2022/01/06 07:23:00;;;;;;;5.30;1.90;;;0.90;99.90;;;;;;4913588;29;20293;-55
2022/01/06 07:25:25;;;;;;;3.90;2.40;;;0.90;99.90;;;;;;4913996;29;20219;-54
2022/01/06 07:27:51;;;;;;;1.97;1.77;;;0.90;99.90;;;;;;4913063;29;20701;-56
2022/01/06 07:30:17;;;;;;;2.57;1.80;;;0.90;99.90;;;;;;4911790;29;20242;-56
2022/01/06 07:32:47;;;;;;;4.40;2.10;;;0.90;99.90;;;;;;4911208;29;20210;-57
2022/01/06 07:35:14;;;;;;;1.67;1.52;;;0.90;99.90;;;;;;4906969;29;20202;-56
2022/01/06 07:37:39;;;;;;;4.40;1.70;;;0.90;99.90;;;;;;4906739;29;20187;-56
2022/01/06 07:40:08;;;;;;;3.33;1.57;;;0.90;99.90;;;;;;4911714;29;20671;-53
2022/01/06 07:42:35;;;;;;;3.55;1.90;;;0.90;99.90;;;;;;4913499;29;20282;-52
2022/01/06 07:45:00;;;;;;;3.10;1.90;;;0.90;99.90;;;;;;4913382;29;20245;-53
2022/01/06 07:47:28;;;;;;;3.70;1.50;;;0.90;99.90;;;;;;4912498;29;20215;-57
2022/01/06 07:49:54;;;;;;;1.88;1.58;;;0.90;99.90;;;;;;4909731;29;20186;-56
2022/01/06 07:52:21;;;;;;;1.80;1.40;;;0.80;99.90;;;;;;4909058;29;20195;-54
2022/01/06 07:54:47;;;;;;;5.45;1.58;;;0.90;99.90;;;;;;4911945;29;20233;-57
2022/01/06 07:57:12;;;;;;;3.23;1.53;;;0.80;99.90;;;;;;4912437;29;20897;-50
2022/01/06 07:59:38;;;;;;;2.80;1.50;;;0.80;99.90;;;;;;4912723;29;20194;-56
2022/01/06 08:02:03;;;;;;;1.83;1.50;;;0.80;99.90;;;;;;4912641;29;20215;-55
2022/01/06 08:04:29;;;;;;;2.03;1.83;;;0.80;99.90;;;;;;4911003;29;20203;-54
2022/01/06 08:06:54;;;;;;;3.30;1.83;;;1.00;99.90;;;;;;4911936;29;20218;-56
2022/01/06 08:09:20;;;;;;;2.30;1.77;;;1.00;99.90;;;;;;4912150;29;20195;-50
2022/01/06 08:11:46;;;;;;;5.63;1.70;;;1.20;99.90;;;;;;4912193;29;20190;-54
2022/01/06 08:14:11;;;;;;;1.93;1.73;;;1.20;99.90;;;;;;4912000;29;20253;-55
2022/01/06 08:16:37;;;;;;;2.40;1.80;;;1.20;99.90;;;;;;4907285;29;20186;-55
2022/01/06 08:19:02;;;;;;;4.70;1.93;;;1.30;99.90;;;;;;4912094;29;20190;-53
2022/01/06 08:21:28;;;;;;;5.97;2.20;;;1.30;99.90;;;;;;4908845;29;20188;-54
2022/01/06 08:23:53;;;;;;;3.00;1.73;;;1.40;99.90;;;;;;4909840;29;20214;-54
2022/01/06 08:26:19;;;;;;;2.10;1.67;;;1.40;99.90;;;;;;4909409;29;20597;-51
2022/01/06 08:28:46;;;;;;;1.90;1.50;;;1.50;99.90;;;;;;4910530;29;20342;-54
2022/01/06 08:31:13;;;;;;;3.42;1.90;;;1.60;99.90;;;;;;4894889;29;20278;-51
2022/01/06 08:33:39;;;;;;;3.10;1.48;;;1.70;99.90;;;;;;4912570;29;20187;-55
2022/01/06 08:36:05;;;;;;;3.90;2.83;;;1.70;99.90;;;;;;4910985;29;20237;-53
2022/01/06 08:38:31;;;;;;;1.67;1.50;;;1.70;99.90;;;;;;4912148;29;20780;-54
2022/01/06 08:40:56;;;;;;;1.87;1.67;;;1.70;99.90;;;;;;4906503;29;20195;-55
2022/01/06 08:43:27;;;;;;;2.33;1.97;;;1.70;99.90;;;;;;4909308;29;20198;-55
2022/01/06 08:45:54;;;;;;;3.50;2.00;;;1.80;99.90;;;;;;4909360;29;20218;-54
2022/01/06 08:48:20;;;;;;;2.30;1.63;;;1.80;99.90;;;;;;4910675;29;20755;-49
2022/01/06 08:50:46;;;;;;;2.72;1.55;;;1.90;99.90;;;;;;4892121;29;20685;-51
2022/01/06 08:53:11;;;;;;;4.53;1.60;;;1.90;99.90;;;;;;4903948;29;20238;-54
2022/01/06 08:55:37;;;;;;;3.73;2.17;;;1.90;99.90;;;;;;4908468;29;20725;-54
2022/01/06 08:58:03;;;;;;;3.83;2.50;;;2.00;99.90;;;;;;4908483;29;20190;-55
2022/01/06 09:00:30;;;;;;;3.50;2.10;;;2.20;99.90;;;;;;4904329;29;20494;-50
2022/01/06 09:02:56;;;;;;;3.55;2.17;;;2.30;99.90;;;;;;4909366;29;20921;-53
2022/01/06 09:05:22;;;;;;;4.53;2.00;;;2.40;99.90;;;;;;4907693;29;21599;-51
2022/01/06 09:07:48;;;;;;;3.90;1.97;;;2.50;99.90;;;;;;4908094;29;20255;-56
2022/01/06 09:10:13;;;;;;;5.40;1.80;;;2.50;99.90;;;;;;4906000;29;20263;-56
2022/01/06 09:12:39;;;;;;;4.47;2.20;;;2.50;99.90;;;;;;4910282;29;20210;-56
2022/01/06 09:15:07;;;;;;;2.33;1.65;;;2.60;99.90;;;;;;4908570;29;20180;-54
2022/01/06 09:17:35;;;;;;;4.32;2.08;;;2.70;99.90;;;;;;4910726;29;20658;-53
2022/01/06 09:20:02;;;;;;;2.92;2.10;;;2.70;99.90;;;;;;4911458;29;20187;-52
2022/01/06 09:22:27;;;;;;;4.00;1.90;;;2.90;99.90;;;;;;4908656;29;20283;-51
2022/01/06 09:24:53;;;;;;;3.37;1.70;;;3.10;99.90;;;;;;4910764;29;20274;-53
2022/01/06 09:27:18;;;;;;;2.27;1.87;;;3.20;99.90;;;;;;4910595;29;20773;-51
2022/01/06 09:29:44;;;;;;;2.30;1.80;;;3.40;99.90;;;;;;4908553;29;20221;-54
2022/01/06 09:32:09;;;;;;;7.43;2.30;;;3.40;99.90;;;;;;4911732;29;20244;-55
2022/01/06 09:34:35;;;;;;;3.50;2.20;;;3.40;99.90;;;;;;4914064;29;20187;-56
2022/01/06 09:37:01;;;;;;;4.97;2.13;;;3.30;99.90;;;;;;4913742;29;20217;-52
2022/01/06 09:39:27;;;;;;;3.13;1.90;;;3.30;99.90;;;;;;4914240;29;20191;-53
2022/01/06 09:41:52;;;;;;;3.37;1.90;;;3.30;99.90;;;;;;4914291;29;20586;-55
2022/01/06 09:44:19;;;;;;;3.83;2.17;;;3.40;99.90;;;;;;4912535;29;20188;-56
2022/01/06 09:46:45;;;;;;;4.72;2.00;;;3.50;99.90;;;;;;4909708;29;20309;-54
2022/01/06 09:49:11;;;;;;;2.80;2.10;;;3.50;99.90;;;;;;4910169;29;20906;-54
2022/01/06 09:51:37;;;;;;;3.27;2.13;;;3.50;99.90;;;;;;4913206;29;20283;-51
2022/01/06 09:54:02;;;;;;;2.50;1.90;;;3.60;99.90;;;;;;4912527;29;20244;-53
2022/01/06 09:56:29;;;;;;;3.70;2.00;;;3.80;99.90;;;;;;4914009;29;20191;-56
2022/01/06 09:58:55;;;;;;;3.35;2.30;;;4.10;99.90;;;;;;4913827;29;20869;-54
2022/01/06 10:01:22;;;;;;;3.03;2.20;;;4.10;99.90;;;;;;4914288;29;20187;-53
2022/01/06 10:03:48;;;;;;;3.55;2.25;;;4.20;99.90;;;;;;4911303;29;20251;-53
2022/01/06 10:06:21;;;;;;;4.18;2.30;;;4.00;99.90;;;;;;4904884;29;20318;-52
2022/01/06 10:09:01;;;;;;;5.15;2.28;;;3.90;99.90;;;;;;4912128;29;20262;-53
2022/01/06 10:11:34;;;;;;;4.03;2.33;;;4.00;99.90;;;;;;4913661;29;20201;-55
2022/01/06 10:14:08;;;;;;;2.75;2.00;;;4.20;99.90;;;;;;4913579;29;20198;-54
2022/01/06 10:16:34;;;;;;;4.28;2.25;;;4.20;99.90;;;;;;4913685;29;20187;-55
2022/01/06 10:19:11;;;;;;;3.35;2.38;;;4.30;99.90;;;;;;4914107;29;20199;-54
2022/01/06 10:21:42;;;;;;;4.05;2.50;;;4.40;99.90;;;;;;4913097;29;20187;-55
2022/01/06 10:24:13;;;;;;;3.35;2.70;;;4.50;99.90;;;;;;4896496;29;20210;-55
2022/01/06 10:26:56;;;;;;;2.92;2.35;;;4.60;99.90;;;;;;4912668;29;20648;-55
2022/01/06 10:29:26;;;;;;;2.70;2.50;;;4.90;99.90;;;;;;4913649;29;20255;-50
2022/01/06 10:32:00;;;;;;;2.88;2.55;;;4.90;99.90;;;;;;4906362;29;20207;-51
2022/01/06 10:34:30;;;;;;;4.13;3.03;;;5.10;99.90;;;;;;4911954;29;20195;-54
2022/01/06 10:36:55;;;;;;;3.40;2.70;;;5.50;99.90;;;;;;4914405;29;20528;-56
2022/01/06 10:39:21;;;;;;;4.30;2.80;;;5.40;99.90;;;;;;4896502;29;20202;-54
2022/01/06 10:41:47;;;;;;;2.90;2.70;;;5.40;99.90;;;;;;4912756;29;20198;-53
2022/01/06 10:44:13;;;;;;;3.83;3.13;;;5.00;99.90;;;;;;4895575;29;20576;-53
2022/01/06 10:46:44;;;;;;;5.32;3.15;;;4.70;99.90;;;;;;4895745;29;20808;-52
2022/01/06 10:49:16;;;;;;;3.53;3.20;;;4.50;99.90;;;;;;4911017;29;20222;-54
2022/01/06 10:51:44;;;;;;;2.88;2.40;;;4.30;99.90;;;;;;4909873;29;20215;-52
2022/01/06 10:54:21;;;;;;;2.95;2.75;;;4.30;99.90;;;;;;4896330;29;20190;-51
2022/01/06 10:56:56;;;;;;;3.35;3.05;;;4.10;99.90;;;;;;4913451;29;20187;-56
2022/01/06 10:59:29;;;;;;;6.20;3.05;;;3.90;99.90;;;;;;4896304;29;20198;-53
2022/01/06 11:01:54;;;;;;;3.65;2.58;;;3.70;99.90;;;;;;4912959;29;20215;-53
2022/01/06 11:04:20;;;;;;;2.70;2.37;;;3.60;99.90;;;;;;4913569;29;20278;-55
2022/01/06 11:06:46;;;;;;;2.63;2.43;;;3.70;99.90;;;;;;4913211;29;20269;-52
2022/01/06 11:09:12;;;;;;;2.63;2.43;;;3.60;99.90;;;;;;4905001;29;20239;-55
2022/01/06 11:14:23;;;;;;;5.15;2.40;;;3.60;99.90;;;;;;4913360;29;21132;-54
2022/01/06 11:16:49;;;;;;;3.00;2.67;;;3.80;99.90;;;;;;4913458;29;20267;-55
2022/01/06 11:19:14;;;;;;;2.83;2.50;;;3.80;99.90;;;;;;4911350;29;20283;-55
2022/01/06 11:21:44;;;;;;;4.90;3.00;;;3.80;99.90;;;;;;4910728;29;20183;-55
2022/01/06 11:24:11;;;;;;;3.03;2.70;;;4.00;99.90;;;;;;4909237;29;20187;-53
2022/01/06 11:26:37;;;;;;;4.18;3.00;;;4.80;99.90;;;;;;4911048;29;20333;-54
2022/01/06 11:29:03;;;;;;;3.30;3.00;;;5.70;99.90;;;;;;4913022;29;20366;-52
2022/01/06 11:31:36;;;;;;;4.40;4.00;;;6.90;99.90;;;;;;4910867;29;20435;-54
2022/01/06 11:34:17;;;;;;;3.83;3.30;;;7.40;97.60;;;;;;4913353;29;20669;-55
2022/01/06 11:36:44;;;;;;;4.33;4.03;;;6.80;97.40;;;;;;4899592;29;20468;-53
2022/01/06 11:39:26;;;;;;;5.70;3.67;;;6.50;98.20;;;;;;4913012;29;20462;-55
2022/01/06 11:41:53;;;;;;;5.50;4.32;;;6.10;99.30;;;;;;4909078;29;20462;-54
2022/01/06 11:44:23;;;;;;;6.75;4.20;;;5.70;99.80;;;;;;4911655;29;20196;-54
2022/01/06 11:46:56;;;;;;;4.15;3.45;;;5.30;99.90;;;;;;4912008;29;20737;-55
2022/01/06 11:49:36;;;;;;;3.70;3.40;;;5.00;99.90;;;;;;4913385;29;20282;-54
2022/01/06 11:52:09;;;;;;;5.65;3.22;;;5.00;99.90;;;;;;4912128;29;20173;-50
2022/01/06 11:54:55;;;;;;;3.42;3.13;;;5.00;99.90;;;;;;4892966;29;20180;-52
2022/01/06 11:57:35;;;;;;;3.58;3.28;;;4.80;99.90;;;;;;4905623;29;20210;-53
2022/01/06 12:00:23;;;;;;;3.47;3.00;;;5.00;99.90;;;;;;4911003;29;20304;-52
2022/01/06 12:03:06;;;;;;;3.40;3.10;;;5.20;99.90;;;;;;4912419;29;20187;-54
2022/01/06 12:05:49;;;;;;;3.20;3.00;;;5.60;99.90;;;;;;4912608;29;20176;-54
2022/01/06 12:08:19;;;;;;;4.80;3.20;;;6.30;99.90;;;;;;4912750;29;20167;-55
2022/01/06 12:10:47;;;;;;;3.23;2.83;;;6.90;99.10;;;;;;4910477;29;20450;-57
2022/01/06 12:13:13;;;;;;;3.20;3.00;;;7.60;96.60;;;;;;4910942;29;21083;-58
2022/01/06 12:15:52;;;;;;;3.20;2.90;;;8.40;95.40;;;;;;4907662;29;20424;-56
2022/01/06 12:18:28;;;;;;;3.20;3.00;;;8.90;93.20;;;;;;4897803;29;21309;-53
2022/01/06 12:20:56;;;;;;;3.37;3.07;;;9.40;90.00;;;;;;4909512;29;20415;-65
2022/01/06 12:23:22;;;;;;;3.63;3.33;;;9.60;87.00;;;;;;4905800;29;20926;-63
2022/01/06 12:25:54;;;;;;;3.70;3.40;;;9.80;85.60;;;;;;4906181;29;20416;-60
2022/01/06 12:28:20;;;;;;;3.40;3.10;;;9.80;84.90;;;;;;4908743;29;20270;-63
2022/01/06 12:30:46;;;;;;;3.10;2.90;;;10.60;82.30;;;;;;4909328;29;20923;-63
2022/01/06 12:33:13;;;;;;;4.03;3.30;;;11.10;77.00;;;;;;4907730;29;20215;-63
2022/01/06 12:35:44;;;;;;;3.70;3.40;;;11.20;76.20;;;;;;4904143;29;20194;-63
2022/01/06 12:38:10;;;;;;;4.13;3.73;;;11.00;75.10;;;;;;4911418;29;20422;-65
2022/01/06 12:40:42;;;;;;;3.93;3.63;;;10.80;74.10;;;;;;4910301;29;20518;-64
2022/01/06 12:43:21;;;;;;;3.20;2.90;;;10.70;73.80;;;;;;4911683;29;20430;-64
2022/01/06 12:46:07;;;;;;;3.60;3.40;;;10.70;73.10;;;;;;4910606;29;20467;-64
2022/01/06 12:48:38;;;;;;;4.10;3.40;;;10.40;70.80;;;;;;4890238;29;20426;-62
2022/01/06 12:51:05;;;;;;;3.93;3.63;;;9.90;75.70;;;;;;4907093;29;20437;-62
2022/01/06 12:53:37;;;;;;;3.67;3.37;;;10.50;75.90;;;;;;4901659;29;20838;-62
2022/01/06 12:56:04;;;;;;;4.50;4.00;;;10.90;72.60;;;;;;4897268;29;20474;-61
2022/01/06 12:58:35;;;;;;;3.90;3.60;;;10.80;69.80;;;;;;4893358;29;20510;-62
2022/01/06 13:01:09;;;;;;;3.77;3.57;;;10.70;72.30;;;;;;4895866;29;20926;-56
2022/01/06 13:03:37;;;;;;;4.73;3.83;;;10.70;69.60;;;;;;4896872;29;20439;-57
2022/01/06 13:06:15;;;;;;;4.43;4.10;;;10.90;70.70;;;;;;4898606;29;20470;-53
2022/01/06 13:08:57;;;;;;;3.53;3.27;;;11.00;69.20;;;;;;4896409;29;20454;-57